createdAt,value
2017-08-27T00:00:05.584Z,18.28
2017-08-27T00:01:05.562Z,18.31
2017-08-27T00:02:05.234Z,18.32
2017-08-27T00:03:05.521Z,18.28
2017-08-27T00:04:05.506Z,18.38
2017-08-27T00:05:05.491Z,18.28
2017-08-27T00:06:05.463Z,18.23
2017-08-27T00:07:05.441Z,18.32
2017-08-27T00:08:05.425Z,18.29
2017-08-27T00:09:05.413Z,18.23
2017-08-27T00:10:05.378Z,18.34
2017-08-27T00:11:05.365Z,18.28
2017-08-27T00:12:05.346Z,18.34
2017-08-27T00:13:05.316Z,18.23
2017-08-27T00:14:05.309Z,18.25
2017-08-27T00:15:05.298Z,18.31
2017-08-27T00:16:05.266Z,18.29
2017-08-27T00:17:05.241Z,18.14
2017-08-27T00:18:05.219Z,18.23
2017-08-27T00:19:05.201Z,18.16
2017-08-27T00:20:05.431Z,18.19
2017-08-27T00:21:05.180Z,18.21
2017-08-27T00:22:05.142Z,18.21
2017-08-27T00:23:05.120Z,18.21
2017-08-27T00:24:05.098Z,18.17
2017-08-27T00:25:05.092Z,18.14
2017-08-27T00:26:05.058Z,18.16
2017-08-27T00:27:05.045Z,18.19
2017-08-27T00:28:05.066Z,18.13
2017-08-27T00:29:05.007Z,18.11
2017-08-27T00:30:04.974Z,18.19
2017-08-27T00:31:04.651Z,18.1
2017-08-27T00:32:04.935Z,18.14
2017-08-27T00:33:04.619Z,18.02
2017-08-27T00:34:04.908Z,18.13
2017-08-27T00:35:04.878Z,18.09
2017-08-27T00:36:04.566Z,18.11
2017-08-27T00:37:04.831Z,18.11
2017-08-27T00:38:04.819Z,18.09
2017-08-27T00:39:04.797Z,18.07
2017-08-27T00:40:04.789Z,18.14
2017-08-27T00:41:04.762Z,18.16
2017-08-27T00:42:04.738Z,18.11
2017-08-27T00:43:04.712Z,18.14
2017-08-27T00:44:04.743Z,18.11
2017-08-27T00:45:04.680Z,18.11
2017-08-27T00:46:04.058Z,18.16
2017-08-27T00:47:04.634Z,18.2
2017-08-27T00:48:04.620Z,18.17
2017-08-27T00:49:04.595Z,18.21
2017-08-27T00:50:04.569Z,18.23
2017-08-27T00:51:04.558Z,18.21
2017-08-27T00:52:04.531Z,18.2
2017-08-27T00:53:04.533Z,18.2
2017-08-27T00:54:04.499Z,18.13
2017-08-27T00:55:04.476Z,18.11
2017-08-27T00:56:04.454Z,18.13
2017-08-27T00:57:04.531Z,18.16
2017-08-27T00:58:03.798Z,18.1
2017-08-27T00:59:04.445Z,18.1
2017-08-27T01:00:04.372Z,18.09
2017-08-27T01:01:04.096Z,18.19
2017-08-27T01:02:04.387Z,18.14
2017-08-27T01:03:04.316Z,18.01
2017-08-27T01:04:04.295Z,18.05
2017-08-27T01:05:04.275Z,18.09
2017-08-27T01:06:04.250Z,18.07
2017-08-27T01:07:04.233Z,18.13
2017-08-27T01:08:04.218Z,18.05
2017-08-27T01:09:04.190Z,18.11
2017-08-27T01:10:04.169Z,18.05
2017-08-27T01:11:04.150Z,18.09
2017-08-27T01:12:04.139Z,18.09
2017-08-27T01:13:04.110Z,18.09
2017-08-27T01:14:04.092Z,18.11
2017-08-27T01:15:04.075Z,18.11
2017-08-27T01:16:04.051Z,18.07
2017-08-27T01:17:03.725Z,18.07
2017-08-27T01:18:04.020Z,18.02
2017-08-27T01:19:03.991Z,18.1
2017-08-27T01:20:03.969Z,18.04
2017-08-27T01:21:03.956Z,18.05
2017-08-27T01:22:03.929Z,18.04
2017-08-27T01:23:03.926Z,18.09
2017-08-27T01:24:03.890Z,17.98
2017-08-27T01:25:03.871Z,17.99
2017-08-27T01:26:03.538Z,18.01
2017-08-27T01:27:03.220Z,18.01
2017-08-27T01:28:03.810Z,18.01
2017-08-27T01:29:03.789Z,17.99
2017-08-27T01:30:03.762Z,17.92
2017-08-27T01:31:03.746Z,18.01
2017-08-27T01:32:03.726Z,18.04
2017-08-27T01:33:03.703Z,17.96
2017-08-27T01:34:03.700Z,17.99
2017-08-27T01:35:03.663Z,17.95
2017-08-27T01:36:03.648Z,17.98
2017-08-27T01:37:03.017Z,17.95
2017-08-27T01:38:03.606Z,18.01
2017-08-27T01:39:03.886Z,18.02
2017-08-27T01:40:03.559Z,17.83
2017-08-27T01:41:03.544Z,18.04
2017-08-27T01:42:03.526Z,17.94
2017-08-27T01:43:03.507Z,17.92
2017-08-27T01:44:03.482Z,17.87
2017-08-27T01:45:03.469Z,17.81
2017-08-27T01:46:03.489Z,17.8
2017-08-27T01:47:03.428Z,17.77
2017-08-27T01:48:03.407Z,17.77
2017-08-27T01:49:03.378Z,17.74
2017-08-27T01:50:03.050Z,17.7
2017-08-27T01:51:03.335Z,17.77
2017-08-27T01:52:03.365Z,17.65
2017-08-27T01:53:02.997Z,17.74
2017-08-27T01:54:03.305Z,17.79
2017-08-27T01:55:03.258Z,17.76
2017-08-27T01:56:03.231Z,17.74
2017-08-27T01:57:03.212Z,17.7
2017-08-27T01:58:03.249Z,17.7
2017-08-27T01:59:03.171Z,17.73
2017-08-27T02:00:03.153Z,17.71
2017-08-27T02:01:03.488Z,17.7
2017-08-27T02:02:03.165Z,17.65
2017-08-27T02:03:03.098Z,17.63
2017-08-27T02:04:03.080Z,17.54
2017-08-27T02:05:02.745Z,17.54
2017-08-27T02:06:03.035Z,17.55
2017-08-27T02:07:03.012Z,17.47
2017-08-27T02:08:03.004Z,17.58
2017-08-27T02:09:02.974Z,17.43
2017-08-27T02:10:03.005Z,17.46
2017-08-27T02:11:02.981Z,17.46
2017-08-27T02:12:02.909Z,17.55
2017-08-27T02:13:02.897Z,17.47
2017-08-27T02:14:02.873Z,17.57
2017-08-27T02:15:02.896Z,17.58
2017-08-27T02:16:02.825Z,17.54
2017-08-27T02:17:08.823Z,17.51
2017-08-27T02:18:02.796Z,17.57
2017-08-27T02:19:02.767Z,17.53
2017-08-27T02:20:02.746Z,17.54
2017-08-27T02:21:02.729Z,17.45
2017-08-27T02:22:02.398Z,17.46
2017-08-27T02:23:02.786Z,17.46
2017-08-27T02:24:02.661Z,17.47
2017-08-27T02:25:02.644Z,17.4
2017-08-27T02:26:02.621Z,17.42
2017-08-27T02:27:02.602Z,17.42
2017-08-27T02:28:02.587Z,17.35
2017-08-27T02:29:02.605Z,17.35
2017-08-27T02:30:02.540Z,17.28
2017-08-27T02:31:02.520Z,17.38
2017-08-27T02:32:02.498Z,17.4
2017-08-27T02:33:02.483Z,17.28
2017-08-27T02:34:02.162Z,17.32
2017-08-27T02:35:02.445Z,17.3
2017-08-27T02:36:02.429Z,17.33
2017-08-27T02:37:02.396Z,17.27
2017-08-27T02:38:02.378Z,17.18
2017-08-27T02:39:02.350Z,17.22
2017-08-27T02:40:02.332Z,17.09
2017-08-27T02:41:02.316Z,17.17
2017-08-27T02:42:02.292Z,17.1
2017-08-27T02:43:02.280Z,17.12
2017-08-27T02:44:01.995Z,17.1
2017-08-27T02:45:01.925Z,17.17
2017-08-27T02:46:02.209Z,17.07
2017-08-27T02:47:02.194Z,17.07
2017-08-27T02:48:02.168Z,17.05
2017-08-27T02:49:02.155Z,17.02
2017-08-27T02:50:02.126Z,17.03
2017-08-27T02:51:02.107Z,17.09
2017-08-27T02:52:01.777Z,17.02
2017-08-27T02:53:02.064Z,16.98
2017-08-27T02:54:02.045Z,16.96
2017-08-27T02:55:02.024Z,16.99
2017-08-27T02:56:02.009Z,17.02
2017-08-27T02:57:01.997Z,16.96
2017-08-27T02:58:01.962Z,16.92
2017-08-27T02:59:01.943Z,16.95
2017-08-27T03:00:01.925Z,16.98
2017-08-27T03:01:01.950Z,16.95
2017-08-27T03:02:01.926Z,16.95
2017-08-27T03:03:01.859Z,16.88
2017-08-27T03:04:01.843Z,16.9
2017-08-27T03:05:01.814Z,16.88
2017-08-27T03:06:01.813Z,16.91
2017-08-27T03:07:01.777Z,16.88
2017-08-27T03:08:01.762Z,16.85
2017-08-27T03:09:01.426Z,16.87
2017-08-27T03:10:01.715Z,16.77
2017-08-27T03:11:01.689Z,16.87
2017-08-27T03:12:01.679Z,16.75
2017-08-27T03:13:01.658Z,16.75
2017-08-27T03:14:01.630Z,16.75
2017-08-27T03:15:01.608Z,16.77
2017-08-27T03:16:01.593Z,16.75
2017-08-27T03:17:01.571Z,16.72
2017-08-27T03:18:01.558Z,16.8
2017-08-27T03:19:01.527Z,16.77
2017-08-27T03:20:01.508Z,16.75
2017-08-27T03:21:01.487Z,16.78
2017-08-27T03:22:01.463Z,16.75
2017-08-27T03:23:01.446Z,16.69
2017-08-27T03:24:01.421Z,16.7
2017-08-27T03:25:01.403Z,16.67
2017-08-27T03:26:01.374Z,16.66
2017-08-27T03:27:01.361Z,16.66
2017-08-27T03:28:01.346Z,16.62
2017-08-27T03:29:01.320Z,16.6
2017-08-27T03:30:01.043Z,16.57
2017-08-27T03:31:01.292Z,16.6
2017-08-27T03:32:00.953Z,16.54
2017-08-27T03:33:01.234Z,16.57
2017-08-27T03:34:01.214Z,16.55
2017-08-27T03:35:01.190Z,16.51
2017-08-27T03:36:01.179Z,16.52
2017-08-27T03:37:01.149Z,16.44
2017-08-27T03:38:01.134Z,16.57
2017-08-27T03:39:01.109Z,16.62
2017-08-27T03:40:01.093Z,16.63
2017-08-27T03:41:01.062Z,16.59
2017-08-27T03:42:01.045Z,16.59
2017-08-27T03:43:01.027Z,16.44
2017-08-27T03:44:00.748Z,16.5
2017-08-27T03:45:00.985Z,16.55
2017-08-27T03:46:01.014Z,16.5
2017-08-27T03:47:00.963Z,16.47
2017-08-27T03:48:00.920Z,16.41
2017-08-27T03:49:00.894Z,16.47
2017-08-27T03:50:00.879Z,16.47
2017-08-27T03:51:00.913Z,16.42
2017-08-27T03:52:00.834Z,16.4
2017-08-27T03:53:00.819Z,16.3
2017-08-27T03:54:00.792Z,16.4
2017-08-27T03:55:00.512Z,16.41
2017-08-27T03:56:00.753Z,16.4
2017-08-27T03:57:00.725Z,16.44
2017-08-27T03:58:00.708Z,16.29
2017-08-27T03:59:00.685Z,16.32
2017-08-27T04:00:00.667Z,16.37
2017-08-27T04:01:00.705Z,16.36
2017-08-27T04:02:00.628Z,16.41
2017-08-27T04:03:00.603Z,16.29
2017-08-27T04:04:00.580Z,16.41
2017-08-27T04:05:00.569Z,16.34
2017-08-27T04:06:00.543Z,16.33
2017-08-27T04:07:00.518Z,16.32
2017-08-27T04:08:00.499Z,16.32
2017-08-27T04:09:00.473Z,16.29
2017-08-27T04:10:00.512Z,16.3
2017-08-27T04:11:00.445Z,16.33
2017-08-27T04:12:00.418Z,16.25
2017-08-27T04:13:00.405Z,16.26
2017-08-27T04:14:00.372Z,16.25
2017-08-27T04:15:00.356Z,16.25
2017-08-27T04:16:00.325Z,16.27
2017-08-27T04:17:00.308Z,16.23
2017-08-27T04:18:00.291Z,16.17
2017-08-27T04:19:00.316Z,16.13
2017-08-27T04:20:00.250Z,16.08
2017-08-27T04:21:00.229Z,16.25
2017-08-27T04:22:00.206Z,16.16
2017-08-27T04:23:00.185Z,16.25
2017-08-27T04:24:00.165Z,16.22
2017-08-27T04:25:00.142Z,16.18
2017-08-27T04:26:00.122Z,16.03
2017-08-27T04:27:00.158Z,16.07
2017-08-27T04:28:00.126Z,16.1
2017-08-27T04:29:00.057Z,16.11
2017-08-27T04:30:00.040Z,16.07
2017-08-27T04:31:00.019Z,16.06
2017-08-27T04:32:00.000Z,16.14
2017-08-27T04:32:59.973Z,16.08
2017-08-27T04:33:59.952Z,16.07
2017-08-27T04:34:59.938Z,16.11
2017-08-27T04:35:59.906Z,16.07
2017-08-27T04:36:59.900Z,16.07
2017-08-27T04:37:59.871Z,16.11
2017-08-27T04:38:59.848Z,16.16
2017-08-27T04:39:59.822Z,16.11
2017-08-27T04:40:59.809Z,16.1
2017-08-27T04:41:59.784Z,16.08
2017-08-27T04:42:59.766Z,16.11
2017-08-27T04:43:59.740Z,16.08
2017-08-27T04:44:59.413Z,16.04
2017-08-27T04:45:59.697Z,16.06
2017-08-27T04:46:59.678Z,16.08
2017-08-27T04:47:59.348Z,16.23
2017-08-27T04:48:59.632Z,16.11
2017-08-27T04:49:59.614Z,16.25
2017-08-27T04:50:59.593Z,16.18
2017-08-27T04:51:59.571Z,16.16
2017-08-27T04:52:59.556Z,16.14
2017-08-27T04:53:59.532Z,16.25
2017-08-27T04:54:59.508Z,16.17
2017-08-27T04:55:59.180Z,16.13
2017-08-27T04:56:59.475Z,16.13
2017-08-27T04:57:59.138Z,16.08
2017-08-27T04:58:59.427Z,16.13
2017-08-27T04:59:59.414Z,16.14
2017-08-27T05:00:59.383Z,16.08
2017-08-27T05:01:59.415Z,16.06
2017-08-27T05:02:59.342Z,16.23
2017-08-27T05:03:59.324Z,16.17
2017-08-27T05:04:59.308Z,16.25
2017-08-27T05:05:59.274Z,16.3
2017-08-27T05:06:59.265Z,16.22
2017-08-27T05:07:59.235Z,16.25
2017-08-27T05:08:59.225Z,16.3
2017-08-27T05:09:59.199Z,16.4
2017-08-27T05:10:59.186Z,16.41
2017-08-27T05:11:59.159Z,16.42
2017-08-27T05:12:59.130Z,16.3
2017-08-27T05:13:59.111Z,16.42
2017-08-27T05:14:59.144Z,16.41
2017-08-27T05:15:59.069Z,16.45
2017-08-27T05:16:59.098Z,16.52
2017-08-27T05:17:59.028Z,16.6
2017-08-27T05:18:59.061Z,16.63
2017-08-27T05:19:58.983Z,16.7
2017-08-27T05:20:59.022Z,16.78
2017-08-27T05:21:58.943Z,16.88
2017-08-27T05:22:58.614Z,16.9
2017-08-27T05:23:58.902Z,17
2017-08-27T05:24:58.879Z,17.18
2017-08-27T05:25:58.868Z,17.22
2017-08-27T05:26:58.840Z,17.35
2017-08-27T05:27:58.818Z,17.28
2017-08-27T05:28:58.799Z,17.43
2017-08-27T05:29:58.780Z,17.53
2017-08-27T05:30:58.755Z,17.54
2017-08-27T05:31:58.434Z,17.55
2017-08-27T05:32:58.717Z,17.68
2017-08-27T05:33:58.699Z,17.77
2017-08-27T05:34:58.368Z,17.84
2017-08-27T05:35:58.662Z,17.86
2017-08-27T05:36:58.638Z,17.94
2017-08-27T05:37:58.627Z,17.95
2017-08-27T05:38:58.600Z,17.87
2017-08-27T05:39:58.587Z,17.94
2017-08-27T05:40:58.622Z,18.04
2017-08-27T05:41:58.538Z,17.86
2017-08-27T05:42:58.519Z,17.95
2017-08-27T05:43:58.504Z,17.95
2017-08-27T05:44:58.480Z,17.81
2017-08-27T05:45:58.150Z,17.91
2017-08-27T05:46:58.445Z,17.89
2017-08-27T05:47:58.421Z,17.96
2017-08-27T05:48:58.398Z,17.91
2017-08-27T05:49:58.378Z,17.83
2017-08-27T05:50:58.391Z,18.05
2017-08-27T05:51:58.349Z,18.05
2017-08-27T05:52:58.368Z,18.21
2017-08-27T05:53:58.301Z,18.26
2017-08-27T05:54:58.337Z,18.38
2017-08-27T05:55:57.955Z,18.54
2017-08-27T05:56:58.247Z,18.72
2017-08-27T05:57:58.227Z,18.97
2017-08-27T05:58:58.209Z,19.12
2017-08-27T05:59:58.186Z,19.3
2017-08-27T06:00:58.171Z,19.24
2017-08-27T06:01:58.142Z,19.35
2017-08-27T06:02:58.129Z,19.34
2017-08-27T06:03:58.112Z,19.45
2017-08-27T06:04:58.097Z,19.61
2017-08-27T06:05:58.072Z,19.72
2017-08-27T06:06:57.790Z,19.87
2017-08-27T06:07:58.027Z,19.87
2017-08-27T06:08:58.012Z,20.01
2017-08-27T06:09:57.993Z,20.23
2017-08-27T06:10:57.986Z,20.51
2017-08-27T06:11:57.964Z,20.57
2017-08-27T06:12:57.635Z,20.75
2017-08-27T06:13:57.925Z,20.83
2017-08-27T06:14:57.901Z,20.87
2017-08-27T06:15:57.887Z,20.96
2017-08-27T06:16:57.864Z,21.01
2017-08-27T06:17:57.547Z,21.12
2017-08-27T06:18:57.834Z,21.22
2017-08-27T06:19:57.503Z,21.42
2017-08-27T06:20:57.797Z,21.59
2017-08-27T06:21:57.477Z,21.66
2017-08-27T06:22:57.807Z,21.68
2017-08-27T06:23:57.752Z,21.79
2017-08-27T06:24:57.733Z,21.91
2017-08-27T06:25:57.715Z,21.98
2017-08-27T06:26:57.693Z,21.99
2017-08-27T06:27:57.378Z,22.05
2017-08-27T06:28:57.659Z,22.26
2017-08-27T06:29:57.648Z,22.38
2017-08-27T06:30:57.629Z,22.41
2017-08-27T06:31:57.604Z,22.51
2017-08-27T06:32:57.597Z,22.49
2017-08-27T06:33:57.584Z,22.45
2017-08-27T06:34:57.562Z,22.3
2017-08-27T06:35:57.551Z,22.42
2017-08-27T06:36:57.536Z,22.45
2017-08-27T06:37:57.512Z,22.48
2017-08-27T06:38:57.499Z,22.64
2017-08-27T06:39:57.481Z,22.69
2017-08-27T06:40:57.475Z,22.79
2017-08-27T06:41:57.502Z,22.91
2017-08-27T06:42:57.495Z,23.16
2017-08-27T06:43:57.419Z,23.16
2017-08-27T06:44:57.102Z,23.07
2017-08-27T06:45:57.383Z,23.19
2017-08-27T06:46:57.378Z,23.21
2017-08-27T06:47:57.357Z,23.23
2017-08-27T06:48:57.347Z,23.26
2017-08-27T06:49:57.328Z,23.03
2017-08-27T06:50:57.309Z,23
2017-08-27T06:51:57.292Z,23.03
2017-08-27T06:52:57.324Z,22.84
2017-08-27T06:53:57.259Z,22.82
2017-08-27T06:54:57.252Z,22.96
2017-08-27T06:55:57.229Z,23.14
2017-08-27T06:56:57.215Z,23.35
2017-08-27T06:57:57.200Z,23.53
2017-08-27T06:58:57.181Z,23.52
2017-08-27T06:59:57.170Z,23.57
2017-08-27T07:00:57.157Z,23.56
2017-08-27T07:01:57.139Z,23.6
2017-08-27T07:02:57.125Z,23.67
2017-08-27T07:03:57.111Z,23.82
2017-08-27T07:04:57.094Z,23.9
2017-08-27T07:05:57.085Z,24
2017-08-27T07:06:57.061Z,24.06
2017-08-27T07:07:57.054Z,24.11
2017-08-27T07:08:57.039Z,24.19
2017-08-27T07:09:56.714Z,24.42
2017-08-27T07:10:57.009Z,24.39
2017-08-27T07:11:56.997Z,24.45
2017-08-27T07:12:56.982Z,24.45
2017-08-27T07:13:56.964Z,24.61
2017-08-27T07:14:56.962Z,24.79
2017-08-27T07:15:56.953Z,24.89
2017-08-27T07:16:56.927Z,24.77
2017-08-27T07:17:56.612Z,24.68
2017-08-27T07:18:56.897Z,24.46
2017-08-27T07:19:56.893Z,24.37
2017-08-27T07:20:56.875Z,24.55
2017-08-27T07:21:56.862Z,24.8
2017-08-27T07:22:56.848Z,24.83
2017-08-27T07:23:56.858Z,24.84
2017-08-27T07:24:56.813Z,25.08
2017-08-27T07:25:56.809Z,25.24
2017-08-27T07:26:56.800Z,25.39
2017-08-27T07:27:56.777Z,25.67
2017-08-27T07:28:56.765Z,25.79
2017-08-27T07:29:56.752Z,25.98
2017-08-27T07:30:56.741Z,25.97
2017-08-27T07:31:56.741Z,26.03
2017-08-27T07:32:56.714Z,26.03
2017-08-27T07:33:56.709Z,25.93
2017-08-27T07:34:56.695Z,25.74
2017-08-27T07:35:56.672Z,25.61
2017-08-27T07:36:56.669Z,25.56
2017-08-27T07:37:56.669Z,25.61
2017-08-27T07:38:56.646Z,25.59
2017-08-27T07:39:56.635Z,25.35
2017-08-27T07:40:56.625Z,25.46
2017-08-27T07:41:56.607Z,25.54
2017-08-27T07:42:56.586Z,25.72
2017-08-27T07:43:56.271Z,25.91
2017-08-27T07:44:56.572Z,26.16
2017-08-27T07:45:56.616Z,26.2
2017-08-27T07:46:56.538Z,26.16
2017-08-27T07:47:56.531Z,26.06
2017-08-27T07:48:56.515Z,26.24
2017-08-27T07:49:56.503Z,26.2
2017-08-27T07:50:56.238Z,26.17
2017-08-27T07:51:56.483Z,26.27
2017-08-27T07:52:56.467Z,26.32
2017-08-27T07:53:56.458Z,26.31
2017-08-27T07:54:56.498Z,26.39
2017-08-27T07:55:56.441Z,26.61
2017-08-27T07:56:56.438Z,26.75
2017-08-27T07:57:56.421Z,26.86
2017-08-27T07:58:56.094Z,27.01
2017-08-27T07:59:56.393Z,27.03
2017-08-27T08:00:56.380Z,27.09
2017-08-27T08:01:56.367Z,26.88
2017-08-27T08:02:56.363Z,26.9
2017-08-27T08:03:56.346Z,26.94
2017-08-27T08:04:56.039Z,27.02
2017-08-27T08:05:56.324Z,27.08
2017-08-27T08:06:56.313Z,27.23
2017-08-27T08:07:56.320Z,27.2
2017-08-27T08:08:56.299Z,27.16
2017-08-27T08:09:56.285Z,27.2
2017-08-27T08:10:56.274Z,27.11
2017-08-27T08:11:55.950Z,26.72
2017-08-27T08:12:56.249Z,26.5
2017-08-27T08:13:55.936Z,26.38
2017-08-27T08:14:56.227Z,26.34
2017-08-27T08:15:56.223Z,26.24
2017-08-27T08:16:55.896Z,26.46
2017-08-27T08:17:56.201Z,26.5
2017-08-27T08:18:56.185Z,26.68
2017-08-27T08:19:56.177Z,26.98
2017-08-27T08:20:56.163Z,27.39
2017-08-27T08:21:56.154Z,27.43
2017-08-27T08:22:56.147Z,27.46
2017-08-27T08:23:56.140Z,27.77
2017-08-27T08:24:56.123Z,28.01
2017-08-27T08:25:56.116Z,28.18
2017-08-27T08:26:55.798Z,28.32
2017-08-27T08:27:56.099Z,28.55
2017-08-27T08:28:56.086Z,28.79
2017-08-27T08:29:56.080Z,28.91
2017-08-27T08:30:56.075Z,28.65
2017-08-27T08:31:56.068Z,28.54
2017-08-27T08:32:56.051Z,28.69
2017-08-27T08:33:55.732Z,28.76
2017-08-27T08:34:56.051Z,28.61
2017-08-27T08:35:56.022Z,28.38
2017-08-27T08:36:56.012Z,28.13
2017-08-27T08:37:56.006Z,28.09
2017-08-27T08:38:56.010Z,28.08
2017-08-27T08:39:55.691Z,27.95
2017-08-27T08:40:55.979Z,28.09
2017-08-27T08:41:55.971Z,28.35
2017-08-27T08:42:55.971Z,28.8
2017-08-27T08:43:55.971Z,28.85
2017-08-27T08:44:55.952Z,28.69
2017-08-27T08:45:55.931Z,28.2
2017-08-27T08:46:55.930Z,28.01
2017-08-27T08:47:55.628Z,28.23
2017-08-27T08:48:55.916Z,28.3
2017-08-27T08:49:55.903Z,28.35
2017-08-27T08:50:55.889Z,28.32
2017-08-27T08:51:55.876Z,28.3
2017-08-27T08:52:55.573Z,28.35
2017-08-27T08:53:55.862Z,28.36
2017-08-27T08:54:55.856Z,28.42
2017-08-27T08:55:55.843Z,28.52
2017-08-27T08:56:55.840Z,28.4
2017-08-27T08:57:55.826Z,28.51
2017-08-27T08:58:55.877Z,28.67
2017-08-27T08:59:55.804Z,28.43
2017-08-27T09:00:55.797Z,28.25
2017-08-27T09:01:55.792Z,27.77
2017-08-27T09:02:55.471Z,27.25
2017-08-27T09:03:55.459Z,27.24
2017-08-27T09:04:55.762Z,27.3
2017-08-27T09:05:55.758Z,27.5
2017-08-27T09:06:55.755Z,27.53
2017-08-27T09:07:55.735Z,27.71
2017-08-27T09:08:55.410Z,27.59
2017-08-27T09:09:55.726Z,27.68
2017-08-27T09:10:55.708Z,27.8
2017-08-27T09:11:55.699Z,27.96
2017-08-27T09:12:55.715Z,27.99
2017-08-27T09:13:55.674Z,28.08
2017-08-27T09:14:55.664Z,28.25
2017-08-27T09:15:55.656Z,28.32
2017-08-27T09:16:55.657Z,28.65
2017-08-27T09:17:55.638Z,28.77
2017-08-27T09:18:55.629Z,28.65
2017-08-27T09:19:55.616Z,28.64
2017-08-27T09:20:55.307Z,28.83
2017-08-27T09:21:55.595Z,28.94
2017-08-27T09:22:55.594Z,29.1
2017-08-27T09:23:55.583Z,29.27
2017-08-27T09:24:55.580Z,29.29
2017-08-27T09:25:55.564Z,29.27
2017-08-27T09:26:55.551Z,29.48
2017-08-27T09:27:55.551Z,29.57
2017-08-27T09:28:55.540Z,29.54
2017-08-27T09:29:55.532Z,29.48
2017-08-27T09:30:55.528Z,29.44
2017-08-27T09:31:55.516Z,29.58
2017-08-27T09:32:55.505Z,29.57
2017-08-27T09:33:55.553Z,29.42
2017-08-27T09:34:55.492Z,29.27
2017-08-27T09:35:55.492Z,28.92
2017-08-27T09:36:55.482Z,28.8
2017-08-27T09:37:55.519Z,28.67
2017-08-27T09:38:55.457Z,28.32
2017-08-27T09:39:55.457Z,28.35
2017-08-27T09:40:55.126Z,28.52
2017-08-27T09:41:55.433Z,28.28
2017-08-27T09:42:55.670Z,27.74
2017-08-27T09:43:55.412Z,27.28
2017-08-27T09:44:55.398Z,27.02
2017-08-27T09:45:55.388Z,26.81
2017-08-27T09:46:55.386Z,26.72
2017-08-27T09:47:55.363Z,26.64
2017-08-27T09:48:55.366Z,26.65
2017-08-27T09:49:55.042Z,26.72
2017-08-27T09:50:55.349Z,27.01
2017-08-27T09:51:55.331Z,27.34
2017-08-27T09:52:55.326Z,27.53
2017-08-27T09:53:55.320Z,27.77
2017-08-27T09:54:55.340Z,27.99
2017-08-27T09:55:55.288Z,28.24
2017-08-27T09:56:55.585Z,28.36
2017-08-27T09:57:55.269Z,28.4
2017-08-27T09:58:55.005Z,28.48
2017-08-27T09:59:55.262Z,28.36
2017-08-27T10:00:55.234Z,28.09
2017-08-27T10:01:55.229Z,28.01
2017-08-27T10:02:55.225Z,27.99
2017-08-27T10:03:55.207Z,28.01
2017-08-27T10:04:55.196Z,28.17
2017-08-27T10:05:55.194Z,28.33
2017-08-27T10:06:55.182Z,28.42
2017-08-27T10:07:55.178Z,28.54
2017-08-27T10:08:55.167Z,28.64
2017-08-27T10:09:55.149Z,28.8
2017-08-27T10:10:55.153Z,28.83
2017-08-27T10:11:55.131Z,28.95
2017-08-27T10:12:55.124Z,28.98
2017-08-27T10:13:55.130Z,28.94
2017-08-27T10:14:55.108Z,28.88
2017-08-27T10:15:55.096Z,28.91
2017-08-27T10:16:55.088Z,28.97
2017-08-27T10:17:55.090Z,29.12
2017-08-27T10:18:55.076Z,29.12
2017-08-27T10:19:54.755Z,29.32
2017-08-27T10:20:55.064Z,29.26
2017-08-27T10:21:55.050Z,29.55
2017-08-27T10:22:55.029Z,29.11
2017-08-27T10:23:55.041Z,28.58
2017-08-27T10:24:55.028Z,28.25
2017-08-27T10:25:55.008Z,28.15
2017-08-27T10:26:55.007Z,27.95
2017-08-27T10:27:54.989Z,27.68
2017-08-27T10:28:54.994Z,27.18
2017-08-27T10:29:54.968Z,26.81
2017-08-27T10:30:54.962Z,26.5
2017-08-27T10:31:54.953Z,26.08
2017-08-27T10:32:54.942Z,25.83
2017-08-27T10:33:54.938Z,25.49
2017-08-27T10:34:54.934Z,25.24
2017-08-27T10:35:54.919Z,25.12
2017-08-27T10:36:54.952Z,25.01
2017-08-27T10:37:54.892Z,24.77
2017-08-27T10:38:54.887Z,24.64
2017-08-27T10:39:54.872Z,24.46
2017-08-27T10:40:54.863Z,24.45
2017-08-27T10:41:54.845Z,24.45
2017-08-27T10:42:54.829Z,24.48
2017-08-27T10:43:54.816Z,24.52
2017-08-27T10:44:54.800Z,24.48
2017-08-27T10:45:54.779Z,24.48
2017-08-27T10:46:54.778Z,24.37
2017-08-27T10:47:54.754Z,24.37
2017-08-27T10:48:54.452Z,24.44
2017-08-27T10:49:54.724Z,24.42
2017-08-27T10:50:54.711Z,24.48
2017-08-27T10:51:54.698Z,24.42
2017-08-27T10:52:54.690Z,24.29
2017-08-27T10:53:54.665Z,24.24
2017-08-27T10:54:54.666Z,24.06
2017-08-27T10:55:54.639Z,23.97
2017-08-27T10:56:54.622Z,23.9
2017-08-27T10:57:54.609Z,23.82
2017-08-27T10:58:54.589Z,23.69
2017-08-27T10:59:54.579Z,23.49
2017-08-27T11:00:54.577Z,23.52
2017-08-27T11:01:54.793Z,23.49
2017-08-27T11:02:54.219Z,23.5
2017-08-27T11:03:54.516Z,23.47
2017-08-27T11:04:54.494Z,23.45
2017-08-27T11:05:54.485Z,23.41
2017-08-27T11:06:54.468Z,23.41
2017-08-27T11:07:54.449Z,23.37
2017-08-27T11:08:54.435Z,23.31
2017-08-27T11:09:54.417Z,23.16
2017-08-27T11:10:54.388Z,23.16
2017-08-27T11:11:54.072Z,23.16
2017-08-27T11:12:54.062Z,23.09
2017-08-27T11:13:54.343Z,23.07
2017-08-27T11:14:54.329Z,23.16
2017-08-27T11:15:54.308Z,23.22
2017-08-27T11:16:54.292Z,23.32
2017-08-27T11:17:54.280Z,23.38
2017-08-27T11:18:54.259Z,23.54
2017-08-27T11:19:54.254Z,23.53
2017-08-27T11:20:54.219Z,23.63
2017-08-27T11:21:54.219Z,23.54
2017-08-27T11:22:54.200Z,23.5
2017-08-27T11:23:54.181Z,23.42
2017-08-27T11:24:53.854Z,23.29
2017-08-27T11:25:53.836Z,23.29
2017-08-27T11:26:54.119Z,23.22
2017-08-27T11:27:54.110Z,23.29
2017-08-27T11:28:54.091Z,23.22
2017-08-27T11:29:54.082Z,23.21
2017-08-27T11:30:54.051Z,23.16
2017-08-27T11:31:54.038Z,23.29
2017-08-27T11:32:54.023Z,23.14
2017-08-27T11:33:54.005Z,23.09
2017-08-27T11:34:53.980Z,23.15
2017-08-27T11:35:53.977Z,23.15
2017-08-27T11:36:53.947Z,23.07
2017-08-27T11:37:53.931Z,23.06
2017-08-27T11:38:53.914Z,23.12
2017-08-27T11:39:53.882Z,23.16
2017-08-27T11:40:53.926Z,23.23
2017-08-27T11:41:53.858Z,23.39
2017-08-27T11:42:53.904Z,23.41
2017-08-27T11:43:53.831Z,23.42
2017-08-27T11:44:53.820Z,23.42
2017-08-27T11:45:53.805Z,23.39
2017-08-27T11:46:53.474Z,23.47
2017-08-27T11:47:53.805Z,23.41
2017-08-27T11:48:53.434Z,23.49
2017-08-27T11:49:53.418Z,23.5
2017-08-27T11:50:53.401Z,23.49
2017-08-27T11:51:53.697Z,23.38
2017-08-27T11:52:53.682Z,23.39
2017-08-27T11:53:53.338Z,23.31
2017-08-27T11:54:53.638Z,23.14
2017-08-27T11:55:53.625Z,23.15
2017-08-27T11:56:53.301Z,23.11
2017-08-27T11:57:53.589Z,23.09
2017-08-27T11:58:53.568Z,23.07
2017-08-27T11:59:53.549Z,23.14
2017-08-27T12:00:53.527Z,23.04
2017-08-27T12:01:53.510Z,23.07
2017-08-27T12:02:53.186Z,23.07
2017-08-27T12:03:53.176Z,22.99
2017-08-27T12:04:53.459Z,23.12
2017-08-27T12:05:53.132Z,23.07
2017-08-27T12:06:53.426Z,23.12
2017-08-27T12:07:53.417Z,23.12
2017-08-27T12:08:53.386Z,23.12
2017-08-27T12:09:53.379Z,23.16
2017-08-27T12:10:53.402Z,23.16
2017-08-27T12:11:53.331Z,23.16
2017-08-27T12:12:53.319Z,23.15
2017-08-27T12:13:53.306Z,23.16
2017-08-27T12:14:53.288Z,23.19
2017-08-27T12:15:53.258Z,23.12
2017-08-27T12:16:53.256Z,23.07
2017-08-27T12:17:53.235Z,23.12
2017-08-27T12:18:53.274Z,23.12
2017-08-27T12:19:53.197Z,23.16
2017-08-27T12:20:53.178Z,23.16
2017-08-27T12:21:53.168Z,23.29
2017-08-27T12:22:53.148Z,23.39
2017-08-27T12:23:53.169Z,23.39
2017-08-27T12:24:53.112Z,23.37
2017-08-27T12:25:53.102Z,23.34
2017-08-27T12:26:53.070Z,23.42
2017-08-27T12:27:52.741Z,23.35
2017-08-27T12:28:53.042Z,23.38
2017-08-27T12:29:52.715Z,23.38
2017-08-27T12:30:52.707Z,23.31
2017-08-27T12:31:53.039Z,23.25
2017-08-27T12:32:52.967Z,23.19
2017-08-27T12:33:52.952Z,23.14
2017-08-27T12:34:52.933Z,23.06
2017-08-27T12:35:52.910Z,23.03
2017-08-27T12:36:52.896Z,22.91
2017-08-27T12:37:52.893Z,22.86
2017-08-27T12:38:52.859Z,22.72
2017-08-27T12:39:52.853Z,22.66
2017-08-27T12:40:52.831Z,22.59
2017-08-27T12:41:52.829Z,22.57
2017-08-27T12:42:52.784Z,22.57
2017-08-27T12:43:52.514Z,22.54
2017-08-27T12:44:52.758Z,22.56
2017-08-27T12:45:52.799Z,22.6
2017-08-27T12:46:52.773Z,22.61
2017-08-27T12:47:52.713Z,22.67
2017-08-27T12:48:52.382Z,22.74
2017-08-27T12:49:52.667Z,22.76
2017-08-27T12:50:52.641Z,22.74
2017-08-27T12:51:52.628Z,22.79
2017-08-27T12:52:52.615Z,22.76
2017-08-27T12:53:52.604Z,22.76
2017-08-27T12:54:52.530Z,22.78